sensor_id;sensor_type;location;lat;lon;timestamp;temperature;humidity
14049;DHT22;7099;53.922;10.728;2023-07-29T00:00:06;17.70;79.50
14049;DHT22;7099;53.922;10.728;2023-07-29T00:04:12;17.70;79.80
14049;DHT22;7099;53.922;10.728;2023-07-29T00:08:17;17.70;79.90
14049;DHT22;7099;53.922;10.728;2023-07-29T00:12:23;17.70;80.20
14049;DHT22;7099;53.922;10.728;2023-07-29T00:16:29;17.70;80.20
14049;DHT22;7099;53.922;10.728;2023-07-29T00:20:34;17.60;80.10
14049;DHT22;7099;53.922;10.728;2023-07-29T00:24:40;17.60;80.60
14049;DHT22;7099;53.922;10.728;2023-07-29T00:28:46;17.60;81.40
14049;DHT22;7099;53.922;10.728;2023-07-29T00:32:52;17.60;81.00
14049;DHT22;7099;53.922;10.728;2023-07-29T00:36:58;17.60;81.10
14049;DHT22;7099;53.922;10.728;2023-07-29T00:41:03;17.60;81.70
14049;DHT22;7099;53.922;10.728;2023-07-29T00:45:09;17.60;82.30
14049;DHT22;7099;53.922;10.728;2023-07-29T00:49:15;17.70;82.30
14049;DHT22;7099;53.922;10.728;2023-07-29T00:53:21;17.70;82.10
14049;DHT22;7099;53.922;10.728;2023-07-29T00:57:27;17.60;82.20
14049;DHT22;7099;53.922;10.728;2023-07-29T01:01:34;17.60;82.80
14049;DHT22;7099;53.922;10.728;2023-07-29T01:10:41;17.60;83.00
14049;DHT22;7099;53.922;10.728;2023-07-29T01:24:09;17.60;83.30
14049;DHT22;7099;53.922;10.728;2023-07-29T01:28:14;17.60;82.90
14049;DHT22;7099;53.922;10.728;2023-07-29T01:36:42;17.60;83.60
14049;DHT22;7099;53.922;10.728;2023-07-29T01:40:52;17.50;83.10
14049;DHT22;7099;53.922;10.728;2023-07-29T01:44:59;17.60;82.70
14049;DHT22;7099;53.922;10.728;2023-07-29T01:49:05;17.50;82.30
14049;DHT22;7099;53.922;10.728;2023-07-29T01:53:10;17.40;82.30
14049;DHT22;7099;53.922;10.728;2023-07-29T01:57:16;17.50;82.50
14049;DHT22;7099;53.922;10.728;2023-07-29T02:01:21;17.40;82.50
14049;DHT22;7099;53.922;10.728;2023-07-29T02:05:27;17.40;82.70
14049;DHT22;7099;53.922;10.728;2023-07-29T02:09:33;17.40;83.00
14049;DHT22;7099;53.922;10.728;2023-07-29T02:13:38;17.40;83.40
14049;DHT22;7099;53.922;10.728;2023-07-29T02:17:44;17.40;83.70
14049;DHT22;7099;53.922;10.728;2023-07-29T02:21:49;17.40;83.90
14049;DHT22;7099;53.922;10.728;2023-07-29T02:25:55;17.40;84.00
14049;DHT22;7099;53.922;10.728;2023-07-29T02:30:00;17.50;84.00
14049;DHT22;7099;53.922;10.728;2023-07-29T02:34:06;17.50;84.00
14049;DHT22;7099;53.922;10.728;2023-07-29T02:38:12;17.40;84.10
14049;DHT22;7099;53.922;10.728;2023-07-29T02:42:18;17.40;84.20
14049;DHT22;7099;53.922;10.728;2023-07-29T02:46:24;17.50;84.20
14049;DHT22;7099;53.922;10.728;2023-07-29T02:50:29;17.50;84.10
14049;DHT22;7099;53.922;10.728;2023-07-29T02:54:35;17.50;84.30
14049;DHT22;7099;53.922;10.728;2023-07-29T02:58:41;17.50;84.30
14049;DHT22;7099;53.922;10.728;2023-07-29T03:02:46;17.50;84.60
14049;DHT22;7099;53.922;10.728;2023-07-29T03:06:52;17.60;84.60
14049;DHT22;7099;53.922;10.728;2023-07-29T03:10:58;17.60;84.70
14049;DHT22;7099;53.922;10.728;2023-07-29T03:15:04;17.60;84.70
14049;DHT22;7099;53.922;10.728;2023-07-29T03:19:11;17.60;84.80
14049;DHT22;7099;53.922;10.728;2023-07-29T03:23:17;17.60;84.70
14049;DHT22;7099;53.922;10.728;2023-07-29T03:27:23;17.60;85.40
14049;DHT22;7099;53.922;10.728;2023-07-29T03:31:28;17.60;84.90
14049;DHT22;7099;53.922;10.728;2023-07-29T03:35:34;17.60;85.40
14049;DHT22;7099;53.922;10.728;2023-07-29T03:39:39;17.60;85.70
14049;DHT22;7099;53.922;10.728;2023-07-29T03:43:45;17.60;85.70
14049;DHT22;7099;53.922;10.728;2023-07-29T03:47:50;17.70;86.00
14049;DHT22;7099;53.922;10.728;2023-07-29T03:51:56;17.70;86.10
14049;DHT22;7099;53.922;10.728;2023-07-29T03:56:02;17.80;86.20
14049;DHT22;7099;53.922;10.728;2023-07-29T04:00:07;17.80;87.20
14049;DHT22;7099;53.922;10.728;2023-07-29T04:04:15;17.80;87.50
14049;DHT22;7099;53.922;10.728;2023-07-29T04:08:21;17.80;87.70
14049;DHT22;7099;53.922;10.728;2023-07-29T04:12:27;17.80;88.00
14049;DHT22;7099;53.922;10.728;2023-07-29T04:16:32;17.90;87.90
14049;DHT22;7099;53.922;10.728;2023-07-29T04:20:38;17.90;87.80
14049;DHT22;7099;53.922;10.728;2023-07-29T04:24:44;18.00;88.10
14049;DHT22;7099;53.922;10.728;2023-07-29T04:28:49;18.00;88.50
14049;DHT22;7099;53.922;10.728;2023-07-29T04:32:55;18.00;88.40
14049;DHT22;7099;53.922;10.728;2023-07-29T04:37:00;18.10;88.60
14049;DHT22;7099;53.922;10.728;2023-07-29T04:41:06;18.10;88.90
14049;DHT22;7099;53.922;10.728;2023-07-29T04:45:14;18.10;88.90
14049;DHT22;7099;53.922;10.728;2023-07-29T04:49:19;18.20;89.10
14049;DHT22;7099;53.922;10.728;2023-07-29T04:53:25;18.30;89.30
14049;DHT22;7099;53.922;10.728;2023-07-29T04:57:30;18.40;90.00
14049;DHT22;7099;53.922;10.728;2023-07-29T05:01:36;18.50;90.20
14049;DHT22;7099;53.922;10.728;2023-07-29T05:05:41;18.50;90.10
14049;DHT22;7099;53.922;10.728;2023-07-29T05:09:47;18.50;90.20
14049;DHT22;7099;53.922;10.728;2023-07-29T05:13:53;18.60;90.40
14049;DHT22;7099;53.922;10.728;2023-07-29T05:17:59;18.60;90.40
14049;DHT22;7099;53.922;10.728;2023-07-29T05:22:04;18.70;90.50
14049;DHT22;7099;53.922;10.728;2023-07-29T05:26:10;18.70;90.50
14049;DHT22;7099;53.922;10.728;2023-07-29T05:30:15;18.90;90.80
14049;DHT22;7099;53.922;10.728;2023-07-29T05:34:21;18.90;90.80
14049;DHT22;7099;53.922;10.728;2023-07-29T05:38:26;19.00;90.80
14049;DHT22;7099;53.922;10.728;2023-07-29T05:42:32;19.00;90.80
14049;DHT22;7099;53.922;10.728;2023-07-29T05:46:38;19.10;90.80
14049;DHT22;7099;53.922;10.728;2023-07-29T05:50:44;19.20;91.10
14049;DHT22;7099;53.922;10.728;2023-07-29T05:54:49;19.30;91.00
14049;DHT22;7099;53.922;10.728;2023-07-29T05:58:55;19.30;91.20
14049;DHT22;7099;53.922;10.728;2023-07-29T06:03:00;19.30;91.00
14049;DHT22;7099;53.922;10.728;2023-07-29T06:07:06;19.40;91.10
14049;DHT22;7099;53.922;10.728;2023-07-29T06:11:12;19.50;91.00
14049;DHT22;7099;53.922;10.728;2023-07-29T06:15:17;19.50;91.10
14049;DHT22;7099;53.922;10.728;2023-07-29T06:19:27;19.50;91.10
14049;DHT22;7099;53.922;10.728;2023-07-29T06:23:32;19.60;91.10
14049;DHT22;7099;53.922;10.728;2023-07-29T06:27:38;19.60;91.00
14049;DHT22;7099;53.922;10.728;2023-07-29T06:31:43;19.70;91.00
14049;DHT22;7099;53.922;10.728;2023-07-29T06:35:49;19.90;91.00
14049;DHT22;7099;53.922;10.728;2023-07-29T06:39:54;20.00;91.10
14049;DHT22;7099;53.922;10.728;2023-07-29T06:44:00;20.10;90.80
14049;DHT22;7099;53.922;10.728;2023-07-29T06:48:05;20.20;90.60
14049;DHT22;7099;53.922;10.728;2023-07-29T06:52:11;20.30;90.70
14049;DHT22;7099;53.922;10.728;2023-07-29T06:56:16;20.40;90.50
14049;DHT22;7099;53.922;10.728;2023-07-29T07:00:22;20.50;90.40
14049;DHT22;7099;53.922;10.728;2023-07-29T07:04:27;20.60;90.20
14049;DHT22;7099;53.922;10.728;2023-07-29T07:08:33;20.70;90.00
14049;DHT22;7099;53.922;10.728;2023-07-29T07:12:38;20.80;89.30
14049;DHT22;7099;53.922;10.728;2023-07-29T07:16:44;20.90;89.20
14049;DHT22;7099;53.922;10.728;2023-07-29T07:20:50;21.00;89.60
14049;DHT22;7099;53.922;10.728;2023-07-29T07:24:56;21.20;88.30
14049;DHT22;7099;53.922;10.728;2023-07-29T07:29:01;21.20;87.70
14049;DHT22;7099;53.922;10.728;2023-07-29T07:33:07;21.30;86.90
14049;DHT22;7099;53.922;10.728;2023-07-29T07:37:13;21.30;86.30
14049;DHT22;7099;53.922;10.728;2023-07-29T07:41:18;21.40;86.10
14049;DHT22;7099;53.922;10.728;2023-07-29T07:45:24;21.50;85.70
14049;DHT22;7099;53.922;10.728;2023-07-29T07:49:29;21.70;85.50
14049;DHT22;7099;53.922;10.728;2023-07-29T07:53:35;21.80;85.50
14049;DHT22;7099;53.922;10.728;2023-07-29T07:57:40;21.90;84.60
14049;DHT22;7099;53.922;10.728;2023-07-29T08:01:46;22.10;84.60
14049;DHT22;7099;53.922;10.728;2023-07-29T08:05:52;22.20;84.00
14049;DHT22;7099;53.922;10.728;2023-07-29T08:09:57;22.30;83.30
14049;DHT22;7099;53.922;10.728;2023-07-29T08:14:03;22.40;83.70
14049;DHT22;7099;53.922;10.728;2023-07-29T08:18:08;22.40;83.00
14049;DHT22;7099;53.922;10.728;2023-07-29T08:22:14;22.50;82.90
14049;DHT22;7099;53.922;10.728;2023-07-29T08:26:22;22.40;82.70
14049;DHT22;7099;53.922;10.728;2023-07-29T08:30:27;22.40;82.60
14049;DHT22;7099;53.922;10.728;2023-07-29T08:34:33;22.40;82.70
14049;DHT22;7099;53.922;10.728;2023-07-29T08:38:38;22.50;83.00
14049;DHT22;7099;53.922;10.728;2023-07-29T08:42:45;22.60;82.80
14049;DHT22;7099;53.922;10.728;2023-07-29T08:46:52;22.60;82.40
14049;DHT22;7099;53.922;10.728;2023-07-29T08:51:01;22.70;82.60
14049;DHT22;7099;53.922;10.728;2023-07-29T08:55:08;22.70;81.20
14049;DHT22;7099;53.922;10.728;2023-07-29T08:59:14;22.70;81.70
14049;DHT22;7099;53.922;10.728;2023-07-29T09:03:22;22.60;81.50
14049;DHT22;7099;53.922;10.728;2023-07-29T09:07:29;22.60;81.70
14049;DHT22;7099;53.922;10.728;2023-07-29T09:11:35;22.60;82.00
14049;DHT22;7099;53.922;10.728;2023-07-29T09:15:40;22.50;82.10
14049;DHT22;7099;53.922;10.728;2023-07-29T09:19:50;22.40;82.60
14049;DHT22;7099;53.922;10.728;2023-07-29T09:23:56;22.20;82.50
14049;DHT22;7099;53.922;10.728;2023-07-29T09:28:07;22.00;82.60
14049;DHT22;7099;53.922;10.728;2023-07-29T09:32:22;21.80;82.70
14049;DHT22;7099;53.922;10.728;2023-07-29T09:36:32;21.70;82.00
14049;DHT22;7099;53.922;10.728;2023-07-29T09:40:40;21.60;83.10
14049;DHT22;7099;53.922;10.728;2023-07-29T09:44:47;21.50;83.50
14049;DHT22;7099;53.922;10.728;2023-07-29T09:48:54;21.50;84.30
14049;DHT22;7099;53.922;10.728;2023-07-29T09:53:02;21.60;84.80
14049;DHT22;7099;53.922;10.728;2023-07-29T09:57:08;21.70;84.80
14049;DHT22;7099;53.922;10.728;2023-07-29T10:01:13;21.80;85.10
14049;DHT22;7099;53.922;10.728;2023-07-29T10:05:21;21.90;85.80
14049;DHT22;7099;53.922;10.728;2023-07-29T10:09:28;21.90;85.40
14049;DHT22;7099;53.922;10.728;2023-07-29T10:13:35;22.10;85.60
14049;DHT22;7099;53.922;10.728;2023-07-29T10:17:41;22.20;86.10
14049;DHT22;7099;53.922;10.728;2023-07-29T10:21:49;22.40;85.90
14049;DHT22;7099;53.922;10.728;2023-07-29T10:26:01;22.50;85.30
14049;DHT22;7099;53.922;10.728;2023-07-29T10:30:11;22.50;84.60
14049;DHT22;7099;53.922;10.728;2023-07-29T10:34:19;22.60;84.20
14049;DHT22;7099;53.922;10.728;2023-07-29T10:38:26;22.70;83.40
14049;DHT22;7099;53.922;10.728;2023-07-29T10:42:31;22.80;83.70
14049;DHT22;7099;53.922;10.728;2023-07-29T10:46:37;23.00;83.10
14049;DHT22;7099;53.922;10.728;2023-07-29T10:50:43;23.10;82.60
14049;DHT22;7099;53.922;10.728;2023-07-29T10:54:48;23.20;82.40
14049;DHT22;7099;53.922;10.728;2023-07-29T10:59:32;23.40;81.70
14049;DHT22;7099;53.922;10.728;2023-07-29T11:03:41;23.50;82.50
14049;DHT22;7099;53.922;10.728;2023-07-29T11:07:49;23.60;81.30
14049;DHT22;7099;53.922;10.728;2023-07-29T11:11:57;23.80;80.20
14049;DHT22;7099;53.922;10.728;2023-07-29T11:16:03;24.00;79.20
14049;DHT22;7099;53.922;10.728;2023-07-29T11:20:10;24.10;79.00
14049;DHT22;7099;53.922;10.728;2023-07-29T11:24:18;24.20;77.50
14049;DHT22;7099;53.922;10.728;2023-07-29T11:28:25;24.30;74.90
14049;DHT22;7099;53.922;10.728;2023-07-29T11:32:32;24.50;74.50
14049;DHT22;7099;53.922;10.728;2023-07-29T11:36:45;24.60;74.20
14049;DHT22;7099;53.922;10.728;2023-07-29T11:40:58;24.90;73.90
14049;DHT22;7099;53.922;10.728;2023-07-29T11:45:05;24.90;72.30
14049;DHT22;7099;53.922;10.728;2023-07-29T11:49:11;25.10;73.00
14049;DHT22;7099;53.922;10.728;2023-07-29T11:53:17;25.20;72.60
14049;DHT22;7099;53.922;10.728;2023-07-29T11:57:23;25.20;72.10
14049;DHT22;7099;53.922;10.728;2023-07-29T12:01:29;25.20;71.30
14049;DHT22;7099;53.922;10.728;2023-07-29T12:05:34;25.20;71.80
14049;DHT22;7099;53.922;10.728;2023-07-29T12:09:41;25.20;71.30
14049;DHT22;7099;53.922;10.728;2023-07-29T12:13:47;25.30;72.10
14049;DHT22;7099;53.922;10.728;2023-07-29T12:17:54;25.40;69.80
14049;DHT22;7099;53.922;10.728;2023-07-29T12:22:05;25.40;70.80
14049;DHT22;7099;53.922;10.728;2023-07-29T12:26:11;25.40;69.00
14049;DHT22;7099;53.922;10.728;2023-07-29T12:30:20;25.40;68.40
14049;DHT22;7099;53.922;10.728;2023-07-29T12:34:31;25.40;68.40
14049;DHT22;7099;53.922;10.728;2023-07-29T12:38:36;25.60;69.40
14049;DHT22;7099;53.922;10.728;2023-07-29T12:42:42;25.80;67.50
14049;DHT22;7099;53.922;10.728;2023-07-29T12:46:47;25.90;67.80
14049;DHT22;7099;53.922;10.728;2023-07-29T12:50:53;26.00;66.70
14049;DHT22;7099;53.922;10.728;2023-07-29T12:54:58;26.10;64.50
14049;DHT22;7099;53.922;10.728;2023-07-29T12:59:04;26.00;64.30
14049;DHT22;7099;53.922;10.728;2023-07-29T13:03:10;26.00;65.30
14049;DHT22;7099;53.922;10.728;2023-07-29T13:07:16;26.10;64.40
14049;DHT22;7099;53.922;10.728;2023-07-29T13:11:21;26.10;63.10
14049;DHT22;7099;53.922;10.728;2023-07-29T13:15:27;26.00;63.20
14049;DHT22;7099;53.922;10.728;2023-07-29T13:19:32;26.10;62.90
14049;DHT22;7099;53.922;10.728;2023-07-29T13:23:38;26.20;63.40
14049;DHT22;7099;53.922;10.728;2023-07-29T13:27:43;26.50;62.80
14049;DHT22;7099;53.922;10.728;2023-07-29T13:31:49;26.60;62.00
14049;DHT22;7099;53.922;10.728;2023-07-29T13:35:54;26.70;61.80
14049;DHT22;7099;53.922;10.728;2023-07-29T13:40:00;26.60;61.10
14049;DHT22;7099;53.922;10.728;2023-07-29T13:44:06;26.60;61.70
14049;DHT22;7099;53.922;10.728;2023-07-29T13:48:11;26.60;59.50
14049;DHT22;7099;53.922;10.728;2023-07-29T13:52:17;26.60;60.00
14049;DHT22;7099;53.922;10.728;2023-07-29T13:56:23;26.60;59.30
14049;DHT22;7099;53.922;10.728;2023-07-29T14:00:28;26.50;59.20
14049;DHT22;7099;53.922;10.728;2023-07-29T14:04:34;26.50;58.90
14049;DHT22;7099;53.922;10.728;2023-07-29T14:08:39;26.60;58.50
14049;DHT22;7099;53.922;10.728;2023-07-29T14:12:47;26.70;58.70
14049;DHT22;7099;53.922;10.728;2023-07-29T14:16:52;26.90;59.50
14049;DHT22;7099;53.922;10.728;2023-07-29T14:20:58;27.10;56.60
14049;DHT22;7099;53.922;10.728;2023-07-29T14:25:04;27.00;55.00
14049;DHT22;7099;53.922;10.728;2023-07-29T14:29:09;26.90;56.00
14049;DHT22;7099;53.922;10.728;2023-07-29T14:33:15;26.80;56.30
14049;DHT22;7099;53.922;10.728;2023-07-29T14:37:21;26.60;56.70
14049;DHT22;7099;53.922;10.728;2023-07-29T14:41:26;26.30;56.90
14049;DHT22;7099;53.922;10.728;2023-07-29T14:45:32;26.20;57.90
14049;DHT22;7099;53.922;10.728;2023-07-29T14:49:37;26.10;58.00
14049;DHT22;7099;53.922;10.728;2023-07-29T14:53:43;26.40;57.70
14049;DHT22;7099;53.922;10.728;2023-07-29T14:57:48;26.70;57.20
14049;DHT22;7099;53.922;10.728;2023-07-29T15:01:53;27.00;56.10
14049;DHT22;7099;53.922;10.728;2023-07-29T15:05:59;27.10;57.70
14049;DHT22;7099;53.922;10.728;2023-07-29T15:10:06;27.30;56.00
14049;DHT22;7099;53.922;10.728;2023-07-29T15:14:12;27.40;55.90
14049;DHT22;7099;53.922;10.728;2023-07-29T15:18:17;27.40;54.10
14049;DHT22;7099;53.922;10.728;2023-07-29T15:22:23;27.00;54.50
14049;DHT22;7099;53.922;10.728;2023-07-29T15:26:28;26.80;54.50
14049;DHT22;7099;53.922;10.728;2023-07-29T15:30:36;26.50;54.70
14049;DHT22;7099;53.922;10.728;2023-07-29T15:34:42;26.60;55.50
14049;DHT22;7099;53.922;10.728;2023-07-29T15:38:48;26.60;55.90
14049;DHT22;7099;53.922;10.728;2023-07-29T15:42:53;26.50;55.80
14049;DHT22;7099;53.922;10.728;2023-07-29T15:46:59;26.30;55.80
14049;DHT22;7099;53.922;10.728;2023-07-29T15:51:04;26.10;56.20
14049;DHT22;7099;53.922;10.728;2023-07-29T15:55:11;26.10;56.80
14049;DHT22;7099;53.922;10.728;2023-07-29T15:59:16;26.10;55.00
14049;DHT22;7099;53.922;10.728;2023-07-29T16:03:22;26.40;57.10
14049;DHT22;7099;53.922;10.728;2023-07-29T16:07:27;26.70;55.80
14049;DHT22;7099;53.922;10.728;2023-07-29T16:11:33;27.00;55.50
14049;DHT22;7099;53.922;10.728;2023-07-29T16:15:39;27.10;55.20
14049;DHT22;7099;53.922;10.728;2023-07-29T16:23:59;26.40;55.60
14049;DHT22;7099;53.922;10.728;2023-07-29T16:28:05;26.00;55.50
14049;DHT22;7099;53.922;10.728;2023-07-29T16:32:10;25.90;55.90
14049;DHT22;7099;53.922;10.728;2023-07-29T16:36:16;25.80;56.40
14049;DHT22;7099;53.922;10.728;2023-07-29T16:40:22;25.70;56.90
14049;DHT22;7099;53.922;10.728;2023-07-29T16:44:27;25.60;57.30
14049;DHT22;7099;53.922;10.728;2023-07-29T16:48:33;25.60;58.20
14049;DHT22;7099;53.922;10.728;2023-07-29T16:52:38;25.50;58.50
14049;DHT22;7099;53.922;10.728;2023-07-29T16:56:46;25.40;58.70
14049;DHT22;7099;53.922;10.728;2023-07-29T17:00:52;25.20;58.90
14049;DHT22;7099;53.922;10.728;2023-07-29T17:04:57;25.00;58.90
14049;DHT22;7099;53.922;10.728;2023-07-29T17:09:04;24.90;59.50
14049;DHT22;7099;53.922;10.728;2023-07-29T17:13:10;24.70;59.80
14049;DHT22;7099;53.922;10.728;2023-07-29T17:17:15;24.60;60.50
14049;DHT22;7099;53.922;10.728;2023-07-29T17:21:21;24.40;61.10
14049;DHT22;7099;53.922;10.728;2023-07-29T17:25:27;24.30;61.80
14049;DHT22;7099;53.922;10.728;2023-07-29T17:29:34;24.20;61.80
14049;DHT22;7099;53.922;10.728;2023-07-29T17:33:40;24.00;61.90
14049;DHT22;7099;53.922;10.728;2023-07-29T17:37:47;23.90;62.60
14049;DHT22;7099;53.922;10.728;2023-07-29T17:41:52;23.70;63.40
14049;DHT22;7099;53.922;10.728;2023-07-29T17:45:58;23.60;64.10
14049;DHT22;7099;53.922;10.728;2023-07-29T17:50:04;23.50;64.20
14049;DHT22;7099;53.922;10.728;2023-07-29T17:54:10;23.40;64.30
14049;DHT22;7099;53.922;10.728;2023-07-29T17:58:15;23.40;64.80
14049;DHT22;7099;53.922;10.728;2023-07-29T18:02:20;23.40;64.80
14049;DHT22;7099;53.922;10.728;2023-07-29T18:06:26;23.50;64.50
14049;DHT22;7099;53.922;10.728;2023-07-29T18:10:32;23.60;64.50
14049;DHT22;7099;53.922;10.728;2023-07-29T18:14:37;23.60;64.10
14049;DHT22;7099;53.922;10.728;2023-07-29T18:18:43;23.40;64.40
14049;DHT22;7099;53.922;10.728;2023-07-29T18:22:48;23.30;65.10
14049;DHT22;7099;53.922;10.728;2023-07-29T18:26:54;23.20;65.70
14049;DHT22;7099;53.922;10.728;2023-07-29T18:30:59;23.10;65.80
14049;DHT22;7099;53.922;10.728;2023-07-29T18:35:12;23.00;66.20
14049;DHT22;7099;53.922;10.728;2023-07-29T18:39:22;22.80;66.60
14049;DHT22;7099;53.922;10.728;2023-07-29T18:43:28;22.70;67.00
14049;DHT22;7099;53.922;10.728;2023-07-29T18:47:34;22.60;67.20
14049;DHT22;7099;53.922;10.728;2023-07-29T18:51:39;22.60;67.80
14049;DHT22;7099;53.922;10.728;2023-07-29T18:55:45;22.50;68.10
14049;DHT22;7099;53.922;10.728;2023-07-29T18:59:51;22.50;68.40
14049;DHT22;7099;53.922;10.728;2023-07-29T19:03:56;22.40;68.50
14049;DHT22;7099;53.922;10.728;2023-07-29T19:08:02;22.30;68.80
14049;DHT22;7099;53.922;10.728;2023-07-29T19:12:08;22.20;69.00
14049;DHT22;7099;53.922;10.728;2023-07-29T19:16:14;22.10;69.30
14049;DHT22;7099;53.922;10.728;2023-07-29T19:20:25;22.00;69.60
14049;DHT22;7099;53.922;10.728;2023-07-29T19:24:31;21.90;70.00
14049;DHT22;7099;53.922;10.728;2023-07-29T19:28:37;21.90;70.40
14049;DHT22;7099;53.922;10.728;2023-07-29T19:32:42;22.20;70.30
14049;DHT22;7099;53.922;10.728;2023-07-29T19:36:51;22.40;70.10
14049;DHT22;7099;53.922;10.728;2023-07-29T19:40:59;22.40;70.30
14049;DHT22;7099;53.922;10.728;2023-07-29T19:45:05;22.40;70.50
14049;DHT22;7099;53.922;10.728;2023-07-29T19:49:11;22.30;70.60
14049;DHT22;7099;53.922;10.728;2023-07-29T19:53:17;22.30;70.70
14049;DHT22;7099;53.922;10.728;2023-07-29T19:57:23;22.20;69.90
14049;DHT22;7099;53.922;10.728;2023-07-29T20:01:28;22.10;70.40
14049;DHT22;7099;53.922;10.728;2023-07-29T20:05:34;22.00;69.80
14049;DHT22;7099;53.922;10.728;2023-07-29T20:09:40;21.90;69.40
14049;DHT22;7099;53.922;10.728;2023-07-29T20:13:45;21.40;70.30
14049;DHT22;7099;53.922;10.728;2023-07-29T20:17:51;21.10;71.10
14049;DHT22;7099;53.922;10.728;2023-07-29T20:21:56;20.90;71.70
14049;DHT22;7099;53.922;10.728;2023-07-29T20:26:02;20.80;72.00
14049;DHT22;7099;53.922;10.728;2023-07-29T20:30:07;20.70;72.30
14049;DHT22;7099;53.922;10.728;2023-07-29T20:34:14;20.60;72.60
14049;DHT22;7099;53.922;10.728;2023-07-29T20:38:19;20.50;72.70
14049;DHT22;7099;53.922;10.728;2023-07-29T20:42:25;20.50;73.00
14049;DHT22;7099;53.922;10.728;2023-07-29T20:46:30;20.80;72.80
14049;DHT22;7099;53.922;10.728;2023-07-29T20:50:42;21.00;72.50
14049;DHT22;7099;53.922;10.728;2023-07-29T20:54:51;21.00;72.40
14049;DHT22;7099;53.922;10.728;2023-07-29T20:58:56;21.00;72.60
14049;DHT22;7099;53.922;10.728;2023-07-29T21:03:02;21.00;72.50
14049;DHT22;7099;53.922;10.728;2023-07-29T21:07:08;20.90;72.50
14049;DHT22;7099;53.922;10.728;2023-07-29T21:11:13;20.90;72.60
14049;DHT22;7099;53.922;10.728;2023-07-29T21:15:19;20.80;73.00
14049;DHT22;7099;53.922;10.728;2023-07-29T21:19:24;20.70;73.10
14049;DHT22;7099;53.922;10.728;2023-07-29T21:23:30;20.70;73.40
14049;DHT22;7099;53.922;10.728;2023-07-29T21:27:35;20.60;73.50
14049;DHT22;7099;53.922;10.728;2023-07-29T21:31:41;20.20;74.30
14049;DHT22;7099;53.922;10.728;2023-07-29T21:35:48;19.90;75.10
14049;DHT22;7099;53.922;10.728;2023-07-29T21:39:53;19.70;75.50
14049;DHT22;7099;53.922;10.728;2023-07-29T21:43:59;19.60;75.70
14049;DHT22;7099;53.922;10.728;2023-07-29T21:48:04;19.50;75.80
14049;DHT22;7099;53.922;10.728;2023-07-29T21:52:10;19.30;76.00
14049;DHT22;7099;53.922;10.728;2023-07-29T21:56:15;19.20;76.20
14049;DHT22;7099;53.922;10.728;2023-07-29T22:00:21;19.10;76.60
14049;DHT22;7099;53.922;10.728;2023-07-29T22:04:26;19.00;77.00
14049;DHT22;7099;53.922;10.728;2023-07-29T22:08:32;18.90;77.30
14049;DHT22;7099;53.922;10.728;2023-07-29T22:12:38;18.90;77.40
14049;DHT22;7099;53.922;10.728;2023-07-29T22:16:43;18.80;77.80
14049;DHT22;7099;53.922;10.728;2023-07-29T22:20:56;18.80;78.00
14049;DHT22;7099;53.922;10.728;2023-07-29T22:25:02;18.70;78.30
14049;DHT22;7099;53.922;10.728;2023-07-29T22:29:08;19.00;78.50
14049;DHT22;7099;53.922;10.728;2023-07-29T22:33:14;19.20;78.20
14049;DHT22;7099;53.922;10.728;2023-07-29T22:37:20;19.30;78.20
14049;DHT22;7099;53.922;10.728;2023-07-29T22:41:25;19.30;78.60
14049;DHT22;7099;53.922;10.728;2023-07-29T22:45:31;18.90;78.80
14049;DHT22;7099;53.922;10.728;2023-07-29T22:49:36;18.60;78.60
14049;DHT22;7099;53.922;10.728;2023-07-29T22:53:42;18.40;78.60
14049;DHT22;7099;53.922;10.728;2023-07-29T22:57:47;18.70;79.40
14049;DHT22;7099;53.922;10.728;2023-07-29T23:01:53;18.80;78.80
14049;DHT22;7099;53.922;10.728;2023-07-29T23:05:58;18.50;79.40
14049;DHT22;7099;53.922;10.728;2023-07-29T23:10:04;18.30;81.40
14049;DHT22;7099;53.922;10.728;2023-07-29T23:14:12;18.10;81.40
14049;DHT22;7099;53.922;10.728;2023-07-29T23:18:17;18.00;82.40
14049;DHT22;7099;53.922;10.728;2023-07-29T23:22:23;17.90;81.80
14049;DHT22;7099;53.922;10.728;2023-07-29T23:26:28;17.90;82.50
14049;DHT22;7099;53.922;10.728;2023-07-29T23:30:33;17.80;81.70
14049;DHT22;7099;53.922;10.728;2023-07-29T23:34:39;17.80;82.50
14049;DHT22;7099;53.922;10.728;2023-07-29T23:38:44;17.70;82.00
14049;DHT22;7099;53.922;10.728;2023-07-29T23:42:50;17.70;80.20
14049;DHT22;7099;53.922;10.728;2023-07-29T23:46:55;18.10;81.00
14049;DHT22;7099;53.922;10.728;2023-07-29T23:51:02;17.90;80.60
14049;DHT22;7099;53.922;10.728;2023-07-29T23:55:08;17.80;81.10
14049;DHT22;7099;53.922;10.728;2023-07-29T23:59:14;17.70;81.00
